sensor_id;sensor_type;location;lat;lon;timestamp;pressure;altitude;pressure_sealevel;temperature;humidity
60244;BME280;46106;51.468;5.814;2023-03-31T00:00:26;100102.34;;;11.31;100.00
60244;BME280;46106;51.468;5.814;2023-03-31T00:02:52;100096.44;;;11.36;100.00
60244;BME280;46106;51.468;5.814;2023-03-31T00:05:25;100078.44;;;11.24;100.00
60244;BME280;46106;51.468;5.814;2023-03-31T00:07:55;100089.97;;;11.37;100.00
60244;BME280;46106;51.468;5.814;2023-03-31T00:10:32;100096.72;;;11.43;100.00
60244;BME280;46106;51.468;5.814;2023-03-31T00:12:58;100091.09;;;11.44;100.00
60244;BME280;46106;51.468;5.814;2023-03-31T00:15:25;100080.41;;;11.41;100.00
60244;BME280;46106;51.468;5.814;2023-03-31T00:17:50;100068.44;;;11.42;100.00
60244;BME280;46106;51.468;5.814;2023-03-31T00:20:16;100061.28;;;11.21;100.00
60244;BME280;46106;51.468;5.814;2023-03-31T00:22:41;100036.03;;;11.08;100.00
60244;BME280;46106;51.468;5.814;2023-03-31T00:25:13;100052.16;;;11.21;100.00
60244;BME280;46106;51.468;5.814;2023-03-31T00:27:43;100040.66;;;11.08;100.00
60244;BME280;46106;51.468;5.814;2023-03-31T00:30:10;100012.41;;;10.97;100.00
60244;BME280;46106;51.468;5.814;2023-03-31T00:32:39;100021.47;;;11.08;100.00
60244;BME280;46106;51.468;5.814;2023-03-31T00:35:05;100017.13;;;11.05;100.00
60244;BME280;46106;51.468;5.814;2023-03-31T00:37:30;99999.72;;;10.87;100.00
60244;BME280;46106;51.468;5.814;2023-03-31T00:39:58;99992.06;;;10.90;100.00
60244;BME280;46106;51.468;5.814;2023-03-31T00:42:24;100007.50;;;11.01;100.00
60244;BME280;46106;51.468;5.814;2023-03-31T00:47:49;99986.44;;;11.01;100.00
60244;BME280;46106;51.468;5.814;2023-03-31T00:50:21;99982.28;;;10.88;100.00
60244;BME280;46106;51.468;5.814;2023-03-31T00:52:54;99974.78;;;10.90;100.00
60244;BME280;46106;51.468;5.814;2023-03-31T00:55:26;99932.28;;;10.66;100.00
60244;BME280;46106;51.468;5.814;2023-03-31T00:57:55;99972.19;;;10.98;100.00
60244;BME280;46106;51.468;5.814;2023-03-31T01:00:22;99963.53;;;10.93;100.00
60244;BME280;46106;51.468;5.814;2023-03-31T01:02:54;99951.59;;;10.84;100.00
60244;BME280;46106;51.468;5.814;2023-03-31T01:08:01;99954.03;;;10.87;100.00
60244;BME280;46106;51.468;5.814;2023-03-31T01:10:32;99932.13;;;10.87;100.00
60244;BME280;46106;51.468;5.814;2023-03-31T01:13:03;99949.41;;;10.97;100.00
60244;BME280;46106;51.468;5.814;2023-03-31T01:15:28;99936.84;;;10.95;100.00
60244;BME280;46106;51.468;5.814;2023-03-31T01:17:54;99904.78;;;10.68;100.00
60244;BME280;46106;51.468;5.814;2023-03-31T01:20:29;99935.16;;;10.94;100.00
60244;BME280;46106;51.468;5.814;2023-03-31T01:23:21;99928.22;;;10.90;100.00
60244;BME280;46106;51.468;5.814;2023-03-31T01:26:22;99922.75;;;10.90;100.00
60244;BME280;46106;51.468;5.814;2023-03-31T01:45:43;99894.50;;;10.89;100.00
60244;BME280;46106;51.468;5.814;2023-03-31T01:48:15;99897.25;;;10.89;100.00
60244;BME280;46106;51.468;5.814;2023-03-31T01:50:57;99889.75;;;10.91;100.00
60244;BME280;46106;51.468;5.814;2023-03-31T01:56:00;99889.59;;;10.93;100.00
60244;BME280;46106;51.468;5.814;2023-03-31T01:58:38;99862.06;;;10.94;100.00
60244;BME280;46106;51.468;5.814;2023-03-31T02:01:10;99867.81;;;10.91;100.00
60244;BME280;46106;51.468;5.814;2023-03-31T02:03:45;99861.19;;;10.94;100.00
60244;BME280;46106;51.468;5.814;2023-03-31T02:06:18;99851.94;;;10.95;100.00
60244;BME280;46106;51.468;5.814;2023-03-31T02:08:54;99847.38;;;10.95;100.00
60244;BME280;46106;51.468;5.814;2023-03-31T02:11:22;99828.63;;;10.91;100.00
60244;BME280;46106;51.468;5.814;2023-03-31T02:13:50;99826.44;;;10.94;100.00
60244;BME280;46106;51.468;5.814;2023-03-31T02:16:20;99806.88;;;10.89;100.00
60244;BME280;46106;51.468;5.814;2023-03-31T02:18:57;99794.78;;;10.82;100.00
60244;BME280;46106;51.468;5.814;2023-03-31T02:21:36;99798.81;;;10.88;100.00
60244;BME280;46106;51.468;5.814;2023-03-31T02:24:06;99776.31;;;10.94;100.00
60244;BME280;46106;51.468;5.814;2023-03-31T02:26:38;99769.09;;;10.93;100.00
60244;BME280;46106;51.468;5.814;2023-03-31T02:29:05;99761.47;;;10.87;100.00
60244;BME280;46106;51.468;5.814;2023-03-31T02:34:05;99728.91;;;10.83;100.00
60244;BME280;46106;51.468;5.814;2023-03-31T02:36:31;99725.88;;;10.87;100.00
60244;BME280;46106;51.468;5.814;2023-03-31T02:39:09;99736.53;;;10.90;100.00
60244;BME280;46106;51.468;5.814;2023-03-31T02:41:37;99718.34;;;10.89;100.00
60244;BME280;46106;51.468;5.814;2023-03-31T02:44:03;99710.47;;;10.85;100.00
60244;BME280;46106;51.468;5.814;2023-03-31T02:46:28;99699.63;;;10.94;100.00
60244;BME280;46106;51.468;5.814;2023-03-31T02:48:57;99695.78;;;11.04;100.00
60244;BME280;46106;51.468;5.814;2023-03-31T02:54:24;99688.50;;;10.95;100.00
60244;BME280;46106;51.468;5.814;2023-03-31T02:56:58;99671.91;;;10.97;100.00
60244;BME280;46106;51.468;5.814;2023-03-31T03:07:58;99642.00;;;10.85;100.00
60244;BME280;46106;51.468;5.814;2023-03-31T03:18:33;99627.28;;;10.87;100.00
60244;BME280;46106;51.468;5.814;2023-03-31T03:20:58;99604.53;;;10.86;100.00
60244;BME280;46106;51.468;5.814;2023-03-31T03:23:24;99599.69;;;10.98;100.00
60244;BME280;46106;51.468;5.814;2023-03-31T03:25:49;99614.38;;;10.97;100.00
60244;BME280;46106;51.468;5.814;2023-03-31T03:28:15;99595.47;;;10.85;100.00
60244;BME280;46106;51.468;5.814;2023-03-31T03:30:41;99607.75;;;10.99;100.00
60244;BME280;46106;51.468;5.814;2023-03-31T03:33:10;99607.50;;;10.93;100.00
60244;BME280;46106;51.468;5.814;2023-03-31T03:35:41;99591.59;;;10.78;100.00
60244;BME280;46106;51.468;5.814;2023-03-31T03:38:10;99585.06;;;10.89;100.00
60244;BME280;46106;51.468;5.814;2023-03-31T03:40:35;99580.19;;;10.83;100.00
60244;BME280;46106;51.468;5.814;2023-03-31T03:43:01;99560.19;;;10.82;100.00
60244;BME280;46106;51.468;5.814;2023-03-31T03:45:26;99576.16;;;10.87;100.00
60244;BME280;46106;51.468;5.814;2023-03-31T03:47:52;99559.78;;;10.77;100.00
60244;BME280;46106;51.468;5.814;2023-03-31T03:50:17;99545.06;;;10.78;100.00
60244;BME280;46106;51.468;5.814;2023-03-31T03:52:43;99549.53;;;10.79;100.00
60244;BME280;46106;51.468;5.814;2023-03-31T03:55:09;99535.38;;;10.84;100.00
60244;BME280;46106;51.468;5.814;2023-03-31T03:57:38;99524.97;;;10.88;100.00
60244;BME280;46106;51.468;5.814;2023-03-31T04:00:05;99520.81;;;10.83;100.00
60244;BME280;46106;51.468;5.814;2023-03-31T04:02:37;99510.25;;;10.71;100.00
60244;BME280;46106;51.468;5.814;2023-03-31T04:05:03;99501.47;;;10.67;100.00
60244;BME280;46106;51.468;5.814;2023-03-31T04:07:29;99487.50;;;10.70;100.00
60244;BME280;46106;51.468;5.814;2023-03-31T04:09:55;99489.59;;;10.76;100.00
60244;BME280;46106;51.468;5.814;2023-03-31T04:12:20;99489.13;;;10.81;100.00
60244;BME280;46106;51.468;5.814;2023-03-31T04:14:45;99467.94;;;10.65;100.00
60244;BME280;46106;51.468;5.814;2023-03-31T04:17:14;99472.88;;;10.79;100.00
60244;BME280;46106;51.468;5.814;2023-03-31T04:19:40;99456.34;;;10.89;100.00
60244;BME280;46106;51.468;5.814;2023-03-31T04:22:07;99475.28;;;10.82;100.00
60244;BME280;46106;51.468;5.814;2023-03-31T04:24:36;99450.75;;;10.73;100.00
60244;BME280;46106;51.468;5.814;2023-03-31T04:27:03;99437.91;;;10.73;100.00
60244;BME280;46106;51.468;5.814;2023-03-31T04:29:31;99461.03;;;10.79;100.00
60244;BME280;46106;51.468;5.814;2023-03-31T04:31:58;99445.97;;;10.75;100.00
60244;BME280;46106;51.468;5.814;2023-03-31T04:34:25;99428.47;;;10.68;100.00
60244;BME280;46106;51.468;5.814;2023-03-31T04:36:59;99446.81;;;10.75;100.00
60244;BME280;46106;51.468;5.814;2023-03-31T04:39:27;99428.38;;;10.77;100.00
60244;BME280;46106;51.468;5.814;2023-03-31T04:41:59;99410.16;;;10.68;100.00
60244;BME280;46106;51.468;5.814;2023-03-31T04:44:25;99424.69;;;10.69;100.00
60244;BME280;46106;51.468;5.814;2023-03-31T04:46:51;99407.88;;;10.63;100.00
60244;BME280;46106;51.468;5.814;2023-03-31T04:49:17;99396.63;;;10.66;100.00
60244;BME280;46106;51.468;5.814;2023-03-31T04:51:42;99406.22;;;10.71;100.00
60244;BME280;46106;51.468;5.814;2023-03-31T04:54:09;99382.63;;;10.70;100.00
60244;BME280;46106;51.468;5.814;2023-03-31T04:56:35;99383.69;;;10.77;100.00
60244;BME280;46106;51.468;5.814;2023-03-31T04:59:00;99382.84;;;10.58;100.00
60244;BME280;46106;51.468;5.814;2023-03-31T05:01:28;99375.28;;;10.52;100.00
60244;BME280;46106;51.468;5.814;2023-03-31T05:03:57;99353.00;;;10.47;100.00
60244;BME280;46106;51.468;5.814;2023-03-31T05:06:23;99371.91;;;10.58;100.00
60244;BME280;46106;51.468;5.814;2023-03-31T05:08:48;99360.81;;;10.60;100.00
60244;BME280;46106;51.468;5.814;2023-03-31T05:11:13;99368.00;;;10.61;100.00
60244;BME280;46106;51.468;5.814;2023-03-31T05:13:39;99346.13;;;10.61;100.00
60244;BME280;46106;51.468;5.814;2023-03-31T05:16:09;99346.19;;;10.69;100.00
60244;BME280;46106;51.468;5.814;2023-03-31T05:18:36;99344.13;;;10.71;100.00
60244;BME280;46106;51.468;5.814;2023-03-31T05:21:12;99352.34;;;10.71;100.00
60244;BME280;46106;51.468;5.814;2023-03-31T05:23:38;99365.50;;;10.94;100.00
60244;BME280;46106;51.468;5.814;2023-03-31T05:26:04;99374.16;;;10.81;100.00
60244;BME280;46106;51.468;5.814;2023-03-31T05:28:30;99346.13;;;10.61;100.00
60244;BME280;46106;51.468;5.814;2023-03-31T05:30:58;99326.63;;;10.64;100.00
60244;BME280;46106;51.468;5.814;2023-03-31T05:33:24;99331.19;;;10.55;100.00
60244;BME280;46106;51.468;5.814;2023-03-31T05:35:49;99331.50;;;10.52;100.00
60244;BME280;46106;51.468;5.814;2023-03-31T05:38:15;99336.50;;;10.57;100.00
60244;BME280;46106;51.468;5.814;2023-03-31T05:40:40;99340.47;;;10.62;100.00
60244;BME280;46106;51.468;5.814;2023-03-31T05:43:06;99346.13;;;10.61;100.00
60244;BME280;46106;51.468;5.814;2023-03-31T05:45:31;99320.22;;;10.55;100.00
60244;BME280;46106;51.468;5.814;2023-03-31T05:47:56;99326.25;;;10.59;100.00
60244;BME280;46106;51.468;5.814;2023-03-31T05:50:22;99304.28;;;10.51;100.00
60244;BME280;46106;51.468;5.814;2023-03-31T05:52:47;99299.53;;;10.53;100.00
60244;BME280;46106;51.468;5.814;2023-03-31T05:55:13;99289.53;;;10.43;100.00
60244;BME280;46106;51.468;5.814;2023-03-31T05:57:38;99276.63;;;10.36;100.00
60244;BME280;46106;51.468;5.814;2023-03-31T06:00:04;99295.31;;;10.40;100.00
60244;BME280;46106;51.468;5.814;2023-03-31T06:02:32;99299.13;;;10.47;100.00
60244;BME280;46106;51.468;5.814;2023-03-31T06:04:57;99298.06;;;10.40;100.00
60244;BME280;46106;51.468;5.814;2023-03-31T06:07:23;99284.75;;;10.45;100.00
60244;BME280;46106;51.468;5.814;2023-03-31T06:09:49;99285.28;;;10.49;100.00
60244;BME280;46106;51.468;5.814;2023-03-31T06:12:14;99275.00;;;10.43;100.00
60244;BME280;46106;51.468;5.814;2023-03-31T06:14:40;99275.47;;;10.38;100.00
60244;BME280;46106;51.468;5.814;2023-03-31T06:17:06;99263.50;;;10.39;100.00
60244;BME280;46106;51.468;5.814;2023-03-31T06:19:31;99271.00;;;10.37;100.00
60244;BME280;46106;51.468;5.814;2023-03-31T06:21:57;99245.59;;;10.27;100.00
60244;BME280;46106;51.468;5.814;2023-03-31T06:24:22;99258.19;;;10.38;100.00
60244;BME280;46106;51.468;5.814;2023-03-31T06:26:48;99251.59;;;10.48;100.00
60244;BME280;46106;51.468;5.814;2023-03-31T06:29:13;99250.28;;;10.53;100.00
60244;BME280;46106;51.468;5.814;2023-03-31T06:31:38;99242.75;;;10.55;100.00
60244;BME280;46106;51.468;5.814;2023-03-31T06:34:04;99242.63;;;10.64;100.00
60244;BME280;46106;51.468;5.814;2023-03-31T06:36:30;99241.41;;;10.59;100.00
60244;BME280;46106;51.468;5.814;2023-03-31T06:38:56;99227.72;;;10.59;100.00
60244;BME280;46106;51.468;5.814;2023-03-31T06:41:22;99235.22;;;10.57;100.00
60244;BME280;46106;51.468;5.814;2023-03-31T06:43:48;99215.91;;;10.58;100.00
60244;BME280;46106;51.468;5.814;2023-03-31T06:46:13;99229.13;;;10.63;100.00
60244;BME280;46106;51.468;5.814;2023-03-31T06:48:39;99227.91;;;10.65;100.00
60244;BME280;46106;51.468;5.814;2023-03-31T06:51:06;99232.19;;;10.60;100.00
60244;BME280;46106;51.468;5.814;2023-03-31T06:53:32;99226.75;;;10.68;100.00
60244;BME280;46106;51.468;5.814;2023-03-31T06:55:59;99220.91;;;10.63;100.00
60244;BME280;46106;51.468;5.814;2023-03-31T06:58:24;99203.91;;;10.51;100.00
60244;BME280;46106;51.468;5.814;2023-03-31T07:00:50;99210.47;;;10.66;100.00
60244;BME280;46106;51.468;5.814;2023-03-31T07:03:16;99220.41;;;10.68;100.00
60244;BME280;46106;51.468;5.814;2023-03-31T07:05:48;99208.59;;;10.67;100.00
60244;BME280;46106;51.468;5.814;2023-03-31T07:08:14;99223.72;;;10.79;100.00
60244;BME280;46106;51.468;5.814;2023-03-31T07:10:42;99221.34;;;10.84;100.00
60244;BME280;46106;51.468;5.814;2023-03-31T07:13:15;99201.31;;;10.76;100.00
60244;BME280;46106;51.468;5.814;2023-03-31T07:15:41;99221.03;;;10.88;100.00
60244;BME280;46106;51.468;5.814;2023-03-31T07:18:07;99206.09;;;10.82;100.00
60244;BME280;46106;51.468;5.814;2023-03-31T07:20:34;99198.69;;;10.66;100.00
60244;BME280;46106;51.468;5.814;2023-03-31T07:23:03;99206.09;;;10.82;100.00
60244;BME280;46106;51.468;5.814;2023-03-31T07:25:31;99206.41;;;10.79;100.00
60244;BME280;46106;51.468;5.814;2023-03-31T07:27:56;99209.56;;;10.84;100.00
60244;BME280;46106;51.468;5.814;2023-03-31T07:30:22;99202.88;;;10.87;100.00
60244;BME280;46106;51.468;5.814;2023-03-31T07:32:49;99196.72;;;10.84;100.00
60244;BME280;46106;51.468;5.814;2023-03-31T07:35:16;99193.97;;;10.84;100.00
60244;BME280;46106;51.468;5.814;2023-03-31T07:37:44;99199.41;;;10.76;100.00
60244;BME280;46106;51.468;5.814;2023-03-31T07:40:20;99205.94;;;10.83;100.00
60244;BME280;46106;51.468;5.814;2023-03-31T07:42:46;99194.13;;;10.83;100.00
60244;BME280;46106;51.468;5.814;2023-03-31T07:45:13;99193.66;;;10.88;100.00
60244;BME280;46106;51.468;5.814;2023-03-31T07:47:39;99197.41;;;10.87;100.00
60244;BME280;46106;51.468;5.814;2023-03-31T07:50:06;99175.69;;;10.93;100.00
60244;BME280;46106;51.468;5.814;2023-03-31T07:52:32;99191.47;;;10.99;100.00
60244;BME280;46106;51.468;5.814;2023-03-31T07:54:57;99179.53;;;11.09;100.00
60244;BME280;46106;51.468;5.814;2023-03-31T07:57:22;99171.81;;;11.04;100.00
60244;BME280;46106;51.468;5.814;2023-03-31T07:59:48;99189.59;;;11.08;100.00
60244;BME280;46106;51.468;5.814;2023-03-31T08:02:16;99188.09;;;11.14;100.00
60244;BME280;46106;51.468;5.814;2023-03-31T08:04:42;99186.03;;;11.16;100.00
60244;BME280;46106;51.468;5.814;2023-03-31T08:07:10;99190.88;;;11.30;100.00
60244;BME280;46106;51.468;5.814;2023-03-31T08:09:36;99189.00;;;11.39;100.00
60244;BME280;46106;51.468;5.814;2023-03-31T08:12:02;99176.69;;;11.35;100.00
60244;BME280;46106;51.468;5.814;2023-03-31T08:14:27;99184.19;;;11.41;100.00
60244;BME280;46106;51.468;5.814;2023-03-31T08:16:52;99177.03;;;11.48;100.00
60244;BME280;46106;51.468;5.814;2023-03-31T08:19:20;99173.78;;;11.53;100.00
60244;BME280;46106;51.468;5.814;2023-03-31T08:21:46;99167.09;;;11.64;100.00
60244;BME280;46106;51.468;5.814;2023-03-31T08:24:12;99173.09;;;11.84;100.00
60244;BME280;46106;51.468;5.814;2023-03-31T08:26:37;99167.31;;;12.03;100.00
60244;BME280;46106;51.468;5.814;2023-03-31T08:29:05;99166.75;;;12.24;100.00
60244;BME280;46106;51.468;5.814;2023-03-31T08:31:30;99164.66;;;12.59;100.00
60244;BME280;46106;51.468;5.814;2023-03-31T08:33:56;99174.38;;;12.70;100.00
60244;BME280;46106;51.468;5.814;2023-03-31T08:36:21;99181.56;;;12.79;100.00
60244;BME280;46106;51.468;5.814;2023-03-31T08:38:47;99166.69;;;12.57;100.00
60244;BME280;46106;51.468;5.814;2023-03-31T08:41:35;99183.63;;;12.69;100.00
60244;BME280;46106;51.468;5.814;2023-03-31T08:44:09;99177.97;;;12.71;100.00
60244;BME280;46106;51.468;5.814;2023-03-31T08:46:36;99169.38;;;12.74;100.00
60244;BME280;46106;51.468;5.814;2023-03-31T08:49:03;99165.75;;;12.81;100.00
60244;BME280;46106;51.468;5.814;2023-03-31T08:51:34;99163.31;;;12.86;100.00
60244;BME280;46106;51.468;5.814;2023-03-31T08:54:10;99161.19;;;12.97;100.00
60244;BME280;46106;51.468;5.814;2023-03-31T08:56:43;99141.78;;;12.98;100.00
60244;BME280;46106;51.468;5.814;2023-03-31T08:59:26;99162.97;;;12.90;100.00
60244;BME280;46106;51.468;5.814;2023-03-31T09:17:44;99149.72;;;12.54;100.00
60244;BME280;46106;51.468;5.814;2023-03-31T09:20:16;99164.25;;;12.62;100.00
60244;BME280;46106;51.468;5.814;2023-03-31T09:22:56;99145.81;;;12.48;100.00
60244;BME280;46106;51.468;5.814;2023-03-31T09:25:37;99166.13;;;12.70;100.00
60244;BME280;46106;51.468;5.814;2023-03-31T09:28:10;99159.44;;;12.73;100.00
60244;BME280;46106;51.468;5.814;2023-03-31T09:30:38;99160.59;;;12.78;100.00
60244;BME280;46106;51.468;5.814;2023-03-31T09:33:26;99156.09;;;12.94;100.00
60244;BME280;46106;51.468;5.814;2023-03-31T09:36:01;99138.41;;;12.88;100.00
60244;BME280;46106;51.468;5.814;2023-03-31T09:38:32;99139.28;;;12.88;100.00
60244;BME280;46106;51.468;5.814;2023-03-31T09:41:03;99132.78;;;13.13;100.00
60244;BME280;46106;51.468;5.814;2023-03-31T09:43:30;99145.09;;;13.33;100.00
60244;BME280;46106;51.468;5.814;2023-03-31T09:45:59;99139.25;;;13.28;100.00
60244;BME280;46106;51.468;5.814;2023-03-31T09:48:29;99143.06;;;13.50;100.00
60244;BME280;46106;51.468;5.814;2023-03-31T09:50:59;99133.28;;;13.48;100.00
60244;BME280;46106;51.468;5.814;2023-03-31T09:53:39;99147.34;;;13.76;100.00
60244;BME280;46106;51.468;5.814;2023-03-31T09:56:06;99149.81;;;13.71;100.00
60244;BME280;46106;51.468;5.814;2023-03-31T09:58:43;99125.47;;;13.59;100.00
60244;BME280;46106;51.468;5.814;2023-03-31T10:01:10;99123.41;;;13.38;100.00
60244;BME280;46106;51.468;5.814;2023-03-31T10:03:49;99138.47;;;13.42;100.00
60244;BME280;46106;51.468;5.814;2023-03-31T10:06:16;99134.56;;;13.60;100.00
60244;BME280;46106;51.468;5.814;2023-03-31T10:09:02;99134.28;;;13.55;100.00
60244;BME280;46106;51.468;5.814;2023-03-31T10:11:30;99125.72;;;13.73;100.00
60244;BME280;46106;51.468;5.814;2023-03-31T10:14:11;99140.97;;;13.75;100.00
60244;BME280;46106;51.468;5.814;2023-03-31T10:16:47;99137.03;;;13.55;100.00
60244;BME280;46106;51.468;5.814;2023-03-31T10:19:23;99124.06;;;13.64;100.00
60244;BME280;46106;51.468;5.814;2023-03-31T10:21:58;99131.00;;;13.97;100.00
60244;BME280;46106;51.468;5.814;2023-03-31T10:24:25;99125.16;;;13.77;100.00
60244;BME280;46106;51.468;5.814;2023-03-31T10:27:00;99123.47;;;13.53;100.00
60244;BME280;46106;51.468;5.814;2023-03-31T10:29:30;99097.97;;;13.59;100.00
60244;BME280;46106;51.468;5.814;2023-03-31T10:32:16;99119.59;;;13.86;100.00
60244;BME280;46106;51.468;5.814;2023-03-31T10:34:43;99118.03;;;13.83;100.00
60244;BME280;46106;51.468;5.814;2023-03-31T10:37:21;99126.97;;;13.85;100.00
60244;BME280;46106;51.468;5.814;2023-03-31T10:40:04;99112.88;;;13.65;100.00
60244;BME280;46106;51.468;5.814;2023-03-31T10:42:37;99120.22;;;13.73;100.00
60244;BME280;46106;51.468;5.814;2023-03-31T10:45:25;99121.84;;;13.59;100.00
60244;BME280;46106;51.468;5.814;2023-03-31T10:47:53;99112.28;;;13.55;100.00
60244;BME280;46106;51.468;5.814;2023-03-31T10:50:35;99100.38;;;13.63;100.00
60244;BME280;46106;51.468;5.814;2023-03-31T10:53:08;99105.66;;;13.64;100.00
60244;BME280;46106;51.468;5.814;2023-03-31T10:55:41;99111.41;;;13.77;100.00
60244;BME280;46106;51.468;5.814;2023-03-31T10:58:17;99109.09;;;13.66;100.00
60244;BME280;46106;51.468;5.814;2023-03-31T11:03:57;99104.84;;;13.78;100.00
60244;BME280;46106;51.468;5.814;2023-03-31T11:12:02;99092.72;;;13.88;100.00
60244;BME280;46106;51.468;5.814;2023-03-31T11:17:25;99073.84;;;13.85;100.00
60244;BME280;46106;51.468;5.814;2023-03-31T11:20:04;99087.56;;;13.70;100.00
60244;BME280;46106;51.468;5.814;2023-03-31T11:27:57;99089.22;;;13.79;100.00
60244;BME280;46106;51.468;5.814;2023-03-31T11:30:37;99078.41;;;13.77;100.00
60244;BME280;46106;51.468;5.814;2023-03-31T11:41:40;99065.97;;;13.96;100.00
60244;BME280;46106;51.468;5.814;2023-03-31T11:44:11;99058.38;;;13.84;100.00
60244;BME280;46106;51.468;5.814;2023-03-31T11:51:52;99060.28;;;13.98;100.00
60244;BME280;46106;51.468;5.814;2023-03-31T11:54:32;99053.75;;;13.99;100.00
60244;BME280;46106;51.468;5.814;2023-03-31T11:57:02;99052.72;;;14.15;100.00
60244;BME280;46106;51.468;5.814;2023-03-31T11:59:31;99049.84;;;13.93;100.00
60244;BME280;46106;51.468;5.814;2023-03-31T12:02:18;99050.00;;;13.77;100.00
60244;BME280;46106;51.468;5.814;2023-03-31T12:04:51;99054.97;;;13.82;100.00
60244;BME280;46106;51.468;5.814;2023-03-31T12:10:04;99035.25;;;13.93;100.00
60244;BME280;46106;51.468;5.814;2023-03-31T12:12:38;99044.06;;;14.18;100.00
60244;BME280;46106;51.468;5.814;2023-03-31T12:15:26;99030.50;;;14.16;100.00
60244;BME280;46106;51.468;5.814;2023-03-31T12:20:42;99024.63;;;14.20;100.00
60244;BME280;46106;51.468;5.814;2023-03-31T12:23:23;99024.59;;;14.49;100.00
60244;BME280;46106;51.468;5.814;2023-03-31T12:28:21;99027.34;;;14.34;100.00
60244;BME280;46106;51.468;5.814;2023-03-31T12:30:48;99013.88;;;14.25;100.00
60244;BME280;46106;51.468;5.814;2023-03-31T12:33:21;99030.31;;;14.48;100.00
60244;BME280;46106;51.468;5.814;2023-03-31T12:36:02;99018.53;;;14.39;100.00
60244;BME280;46106;51.468;5.814;2023-03-31T12:41:18;99019.19;;;14.41;100.00
60244;BME280;46106;51.468;5.814;2023-03-31T12:52:03;99001.13;;;14.53;100.00
60244;BME280;46106;51.468;5.814;2023-03-31T12:57:25;98989.66;;;14.65;100.00
60244;BME280;46106;51.468;5.814;2023-03-31T13:02:39;98974.34;;;14.99;100.00
60244;BME280;46106;51.468;5.814;2023-03-31T13:08:08;98964.16;;;14.78;100.00
60244;BME280;46106;51.468;5.814;2023-03-31T13:11:01;98939.84;;;14.30;100.00
60244;BME280;46106;51.468;5.814;2023-03-31T13:13:26;98970.50;;;14.42;100.00
60244;BME280;46106;51.468;5.814;2023-03-31T13:15:54;98958.59;;;14.41;100.00
60244;BME280;46106;51.468;5.814;2023-03-31T13:18:20;98968.50;;;14.36;100.00
60244;BME280;46106;51.468;5.814;2023-03-31T13:21:00;98961.00;;;14.29;100.00
60244;BME280;46106;51.468;5.814;2023-03-31T13:23:29;98966.94;;;13.96;100.00
60244;BME280;46106;51.468;5.814;2023-03-31T13:25:58;98981.25;;;13.92;100.00
60244;BME280;46106;51.468;5.814;2023-03-31T13:28:40;98986.00;;;13.68;100.00
60244;BME280;46106;51.468;5.814;2023-03-31T13:31:12;98979.22;;;13.56;100.00
60244;BME280;46106;51.468;5.814;2023-03-31T13:33:55;98977.03;;;13.36;100.00
60244;BME280;46106;51.468;5.814;2023-03-31T13:49:58;98938.09;;;13.24;100.00
60244;BME280;46106;51.468;5.814;2023-03-31T13:52:38;98942.72;;;13.09;100.00
60244;BME280;46106;51.468;5.814;2023-03-31T13:55:46;98935.63;;;12.92;100.00
60244;BME280;46106;51.468;5.814;2023-03-31T14:01:44;98953.00;;;12.92;100.00
60244;BME280;46106;51.468;5.814;2023-03-31T14:04:28;98963.81;;;12.94;100.00
60244;BME280;46106;51.468;5.814;2023-03-31T14:07:05;98948.91;;;12.88;100.00
60244;BME280;46106;51.468;5.814;2023-03-31T14:09:33;98959.63;;;12.98;100.00
60244;BME280;46106;51.468;5.814;2023-03-31T14:12:32;98955.44;;;13.10;100.00
60244;BME280;46106;51.468;5.814;2023-03-31T14:14:59;98946.63;;;12.92;100.00
60244;BME280;46106;51.468;5.814;2023-03-31T14:17:30;98940.41;;;12.98;100.00
60244;BME280;46106;51.468;5.814;2023-03-31T14:20:26;98949.91;;;12.87;100.00
60244;BME280;46106;51.468;5.814;2023-03-31T14:26:19;98938.56;;;12.67;100.00
60244;BME280;46106;51.468;5.814;2023-03-31T14:31:52;98942.25;;;12.82;100.00
60244;BME280;46106;51.468;5.814;2023-03-31T14:35:01;98933.00;;;12.98;100.00
60244;BME280;46106;51.468;5.814;2023-03-31T14:37:28;98929.72;;;13.03;100.00
60244;BME280;46106;51.468;5.814;2023-03-31T14:39:57;98934.72;;;12.99;100.00
60244;BME280;46106;51.468;5.814;2023-03-31T14:42:45;98901.25;;;12.81;100.00
60244;BME280;46106;51.468;5.814;2023-03-31T14:45:21;98928.97;;;13.09;100.00
60244;BME280;46106;51.468;5.814;2023-03-31T14:50:18;98907.81;;;12.72;100.00
60244;BME280;46106;51.468;5.814;2023-03-31T14:52:48;98909.72;;;12.71;100.00
60244;BME280;46106;51.468;5.814;2023-03-31T14:55:16;98928.84;;;12.64;100.00
60244;BME280;46106;51.468;5.814;2023-03-31T14:57:44;98922.16;;;12.59;100.00
60244;BME280;46106;51.468;5.814;2023-03-31T15:00:13;98926.03;;;12.49;100.00
60244;BME280;46106;51.468;5.814;2023-03-31T15:02:42;98913.69;;;12.45;100.00
60244;BME280;46106;51.468;5.814;2023-03-31T15:05:24;98922.69;;;12.54;100.00
60244;BME280;46106;51.468;5.814;2023-03-31T15:07:50;98925.50;;;12.46;100.00
60244;BME280;46106;51.468;5.814;2023-03-31T15:10:19;98922.53;;;12.56;100.00
60244;BME280;46106;51.468;5.814;2023-03-31T15:12:47;98904.34;;;12.31;100.00
60244;BME280;46106;51.468;5.814;2023-03-31T15:15:13;98912.84;;;12.45;100.00
60244;BME280;46106;51.468;5.814;2023-03-31T15:17:41;98930.03;;;12.62;100.00
60244;BME280;46106;51.468;5.814;2023-03-31T15:20:26;98922.66;;;12.62;100.00
60244;BME280;46106;51.468;5.814;2023-03-31T15:22:54;98924.06;;;12.81;100.00
60244;BME280;46106;51.468;5.814;2023-03-31T15:25:23;98918.13;;;12.93;100.00
60244;BME280;46106;51.468;5.814;2023-03-31T15:27:57;98908.50;;;12.74;100.00
60244;BME280;46106;51.468;5.814;2023-03-31T15:30:26;98914.91;;;12.66;100.00
60244;BME280;46106;51.468;5.814;2023-03-31T15:32:52;98915.28;;;12.63;100.00